sensor_id;sensor_type;location;lat;lon;timestamp;pressure;altitude;pressure_sealevel;temperature
65823;BMP180;52585;47.566;19.056;2023-02-28T00:01:07;101428.40;;;2.28
65823;BMP180;52585;47.566;19.056;2023-02-28T00:03:33;101430.80;;;2.26
65823;BMP180;52585;47.566;19.056;2023-02-28T00:06:03;101431.60;;;2.28
65823;BMP180;52585;47.566;19.056;2023-02-28T00:08:29;101435.00;;;2.24
65823;BMP180;52585;47.566;19.056;2023-02-28T00:10:55;101435.40;;;2.30
65823;BMP180;52585;47.566;19.056;2023-02-28T00:13:20;101428.00;;;2.30
65823;BMP180;52585;47.566;19.056;2023-02-28T00:15:46;101434.60;;;2.22
65823;BMP180;52585;47.566;19.056;2023-02-28T00:18:11;101438.00;;;2.22
65823;BMP180;52585;47.566;19.056;2023-02-28T00:20:37;101444.60;;;2.24
65823;BMP180;52585;47.566;19.056;2023-02-28T00:23:03;101455.20;;;2.24
65823;BMP180;52585;47.566;19.056;2023-02-28T00:25:29;101458.80;;;2.20
65823;BMP180;52585;47.566;19.056;2023-02-28T00:27:54;101454.40;;;2.20
65823;BMP180;52585;47.566;19.056;2023-02-28T00:30:23;101457.00;;;2.20
65823;BMP180;52585;47.566;19.056;2023-02-28T00:32:50;101457.00;;;2.14
65823;BMP180;52585;47.566;19.056;2023-02-28T00:35:16;101455.80;;;2.10
65823;BMP180;52585;47.566;19.056;2023-02-28T00:37:42;101455.40;;;2.10
65823;BMP180;52585;47.566;19.056;2023-02-28T00:40:09;101452.00;;;2.02
65823;BMP180;52585;47.566;19.056;2023-02-28T00:42:36;101459.00;;;2.00
65823;BMP180;52585;47.566;19.056;2023-02-28T00:45:04;101456.40;;;2.00
65823;BMP180;52585;47.566;19.056;2023-02-28T00:47:31;101467.00;;;2.00
65823;BMP180;52585;47.566;19.056;2023-02-28T00:49:57;101467.80;;;1.96
65823;BMP180;52585;47.566;19.056;2023-02-28T00:52:23;101461.80;;;1.92
65823;BMP180;52585;47.566;19.056;2023-02-28T00:54:48;101466.80;;;1.92
65823;BMP180;52585;47.566;19.056;2023-02-28T00:57:14;101462.20;;;1.96
65823;BMP180;52585;47.566;19.056;2023-02-28T00:59:39;101467.80;;;2.00
65823;BMP180;52585;47.566;19.056;2023-02-28T01:02:05;101465.20;;;2.00
65823;BMP180;52585;47.566;19.056;2023-02-28T01:04:30;101469.40;;;2.00
65823;BMP180;52585;47.566;19.056;2023-02-28T01:06:56;101470.60;;;2.00
65823;BMP180;52585;47.566;19.056;2023-02-28T01:09:21;101474.40;;;2.04
65823;BMP180;52585;47.566;19.056;2023-02-28T01:11:47;101471.80;;;2.04
65823;BMP180;52585;47.566;19.056;2023-02-28T01:14:17;101468.60;;;2.02
65823;BMP180;52585;47.566;19.056;2023-02-28T01:16:43;101467.40;;;2.08
65823;BMP180;52585;47.566;19.056;2023-02-28T01:19:09;101467.40;;;2.10
65823;BMP180;52585;47.566;19.056;2023-02-28T01:21:35;101465.40;;;2.10
65823;BMP180;52585;47.566;19.056;2023-02-28T01:24:03;101471.40;;;2.10
65823;BMP180;52585;47.566;19.056;2023-02-28T01:26:29;101469.40;;;2.12
65823;BMP180;52585;47.566;19.056;2023-02-28T01:28:55;101470.60;;;2.16
65823;BMP180;52585;47.566;19.056;2023-02-28T01:31:22;101471.80;;;2.20
65823;BMP180;52585;47.566;19.056;2023-02-28T01:33:49;101467.60;;;2.20
65823;BMP180;52585;47.566;19.056;2023-02-28T01:36:22;101472.20;;;2.28
65823;BMP180;52585;47.566;19.056;2023-02-28T01:38:48;101474.00;;;2.30
65823;BMP180;52585;47.566;19.056;2023-02-28T01:41:23;101473.20;;;2.30
65823;BMP180;52585;47.566;19.056;2023-02-28T01:46:15;101476.00;;;2.30
65823;BMP180;52585;47.566;19.056;2023-02-28T01:49:08;101467.40;;;2.30
65823;BMP180;52585;47.566;19.056;2023-02-28T01:54:16;101465.40;;;2.30
65823;BMP180;52585;47.566;19.056;2023-02-28T01:56:56;101463.00;;;2.30
65823;BMP180;52585;47.566;19.056;2023-02-28T02:02:02;101468.20;;;2.30
65823;BMP180;52585;47.566;19.056;2023-02-28T02:04:37;101465.80;;;2.30
65823;BMP180;52585;47.566;19.056;2023-02-28T02:07:04;101467.80;;;2.30
65823;BMP180;52585;47.566;19.056;2023-02-28T02:09:30;101466.20;;;2.30
65823;BMP180;52585;47.566;19.056;2023-02-28T02:11:56;101462.60;;;2.30
65823;BMP180;52585;47.566;19.056;2023-02-28T02:17:21;101459.00;;;2.30
65823;BMP180;52585;47.566;19.056;2023-02-28T02:31:36;101453.40;;;2.22
65823;BMP180;52585;47.566;19.056;2023-02-28T02:34:51;101453.80;;;2.20
65823;BMP180;52585;47.566;19.056;2023-02-28T02:37:29;101453.80;;;2.22
65823;BMP180;52585;47.566;19.056;2023-02-28T02:40:03;101453.60;;;2.28
65823;BMP180;52585;47.566;19.056;2023-02-28T02:42:42;101457.20;;;2.30
65823;BMP180;52585;47.566;19.056;2023-02-28T02:45:39;101456.40;;;2.30
65823;BMP180;52585;47.566;19.056;2023-02-28T02:48:13;101456.60;;;2.30
65823;BMP180;52585;47.566;19.056;2023-02-28T02:50:50;101460.80;;;2.28
65823;BMP180;52585;47.566;19.056;2023-02-28T02:53:22;101464.00;;;2.28
65823;BMP180;52585;47.566;19.056;2023-02-28T02:55:52;101464.40;;;2.30
65823;BMP180;52585;47.566;19.056;2023-02-28T02:58:26;101459.00;;;2.30
65823;BMP180;52585;47.566;19.056;2023-02-28T03:00:57;101462.60;;;2.30
65823;BMP180;52585;47.566;19.056;2023-02-28T03:03:25;101465.80;;;2.30
65823;BMP180;52585;47.566;19.056;2023-02-28T03:05:56;101461.60;;;2.30
65823;BMP180;52585;47.566;19.056;2023-02-28T03:08:22;101463.00;;;2.30
65823;BMP180;52585;47.566;19.056;2023-02-28T03:10:51;101466.40;;;2.34
65823;BMP180;52585;47.566;19.056;2023-02-28T03:16:35;101471.00;;;2.40
65823;BMP180;52585;47.566;19.056;2023-02-28T03:22:16;101473.00;;;2.40
65823;BMP180;52585;47.566;19.056;2023-02-28T03:27:29;101478.60;;;2.40
65823;BMP180;52585;47.566;19.056;2023-02-28T03:35:23;101475.80;;;2.40
65823;BMP180;52585;47.566;19.056;2023-02-28T03:38:03;101480.20;;;2.40
65823;BMP180;52585;47.566;19.056;2023-02-28T03:40:34;101478.80;;;2.40
65823;BMP180;52585;47.566;19.056;2023-02-28T03:43:12;101475.40;;;2.42
65823;BMP180;52585;47.566;19.056;2023-02-28T03:45:41;101478.40;;;2.42
65823;BMP180;52585;47.566;19.056;2023-02-28T03:48:24;101469.80;;;2.40
65823;BMP180;52585;47.566;19.056;2023-02-28T03:50:57;101473.40;;;2.40
65823;BMP180;52585;47.566;19.056;2023-02-28T03:53:41;101476.80;;;2.40
65823;BMP180;52585;47.566;19.056;2023-02-28T03:56:39;101473.60;;;2.40
65823;BMP180;52585;47.566;19.056;2023-02-28T03:59:28;101476.20;;;2.42
65823;BMP180;52585;47.566;19.056;2023-02-28T04:01:57;101472.20;;;2.46
65823;BMP180;52585;47.566;19.056;2023-02-28T04:04:24;101475.60;;;2.50
65823;BMP180;52585;47.566;19.056;2023-02-28T04:06:52;101466.40;;;2.50
65823;BMP180;52585;47.566;19.056;2023-02-28T04:09:18;101469.40;;;2.50
65823;BMP180;52585;47.566;19.056;2023-02-28T04:11:50;101468.40;;;2.50
65823;BMP180;52585;47.566;19.056;2023-02-28T04:14:19;101465.40;;;2.50
65823;BMP180;52585;47.566;19.056;2023-02-28T04:16:45;101470.20;;;2.50
65823;BMP180;52585;47.566;19.056;2023-02-28T04:19:12;101466.00;;;2.50
65823;BMP180;52585;47.566;19.056;2023-02-28T04:21:46;101465.20;;;2.50
65823;BMP180;52585;47.566;19.056;2023-02-28T04:24:25;101461.60;;;2.50
65823;BMP180;52585;47.566;19.056;2023-02-28T04:26:54;101467.00;;;2.50
65823;BMP180;52585;47.566;19.056;2023-02-28T04:29:27;101463.60;;;2.50
65823;BMP180;52585;47.566;19.056;2023-02-28T04:31:54;101459.80;;;2.50
65823;BMP180;52585;47.566;19.056;2023-02-28T04:34:21;101460.20;;;2.50
65823;BMP180;52585;47.566;19.056;2023-02-28T04:36:48;101459.20;;;2.50
65823;BMP180;52585;47.566;19.056;2023-02-28T04:39:19;101456.00;;;2.50
65823;BMP180;52585;47.566;19.056;2023-02-28T04:41:46;101454.00;;;2.50
65823;BMP180;52585;47.566;19.056;2023-02-28T04:44:11;101455.00;;;2.50
65823;BMP180;52585;47.566;19.056;2023-02-28T04:46:37;101458.60;;;2.54
65823;BMP180;52585;47.566;19.056;2023-02-28T04:49:03;101453.60;;;2.58
65823;BMP180;52585;47.566;19.056;2023-02-28T04:51:29;101453.60;;;2.58
65823;BMP180;52585;47.566;19.056;2023-02-28T04:53:54;101451.80;;;2.60
65823;BMP180;52585;47.566;19.056;2023-02-28T04:56:21;101449.80;;;2.60
65823;BMP180;52585;47.566;19.056;2023-02-28T04:58:47;101452.80;;;2.60
65823;BMP180;52585;47.566;19.056;2023-02-28T05:03:50;101456.20;;;2.60
65823;BMP180;52585;47.566;19.056;2023-02-28T05:06:17;101454.60;;;2.60
65823;BMP180;52585;47.566;19.056;2023-02-28T05:08:43;101449.80;;;2.60
65823;BMP180;52585;47.566;19.056;2023-02-28T05:11:32;101454.40;;;2.60
65823;BMP180;52585;47.566;19.056;2023-02-28T05:14:08;101454.00;;;2.60
65823;BMP180;52585;47.566;19.056;2023-02-28T05:16:35;101453.80;;;2.60
65823;BMP180;52585;47.566;19.056;2023-02-28T05:19:01;101454.20;;;2.60
65823;BMP180;52585;47.566;19.056;2023-02-28T05:21:33;101458.60;;;2.60
65823;BMP180;52585;47.566;19.056;2023-02-28T05:24:06;101464.40;;;2.60
65823;BMP180;52585;47.566;19.056;2023-02-28T05:26:39;101467.20;;;2.60
65823;BMP180;52585;47.566;19.056;2023-02-28T05:29:05;101467.60;;;2.60
65823;BMP180;52585;47.566;19.056;2023-02-28T05:31:32;101468.60;;;2.60
65823;BMP180;52585;47.566;19.056;2023-02-28T05:33:57;101466.00;;;2.60
65823;BMP180;52585;47.566;19.056;2023-02-28T05:36:23;101464.40;;;2.60
65823;BMP180;52585;47.566;19.056;2023-02-28T05:38:50;101461.40;;;2.60
65823;BMP180;52585;47.566;19.056;2023-02-28T05:41:17;101469.00;;;2.62
65823;BMP180;52585;47.566;19.056;2023-02-28T05:43:45;101476.40;;;2.66
65823;BMP180;52585;47.566;19.056;2023-02-28T05:46:12;101479.20;;;2.66
65823;BMP180;52585;47.566;19.056;2023-02-28T05:48:40;101484.00;;;2.70
65823;BMP180;52585;47.566;19.056;2023-02-28T05:51:08;101488.80;;;2.70
65823;BMP180;52585;47.566;19.056;2023-02-28T05:53:35;101486.20;;;2.70
65823;BMP180;52585;47.566;19.056;2023-02-28T05:56:01;101484.40;;;2.70
65823;BMP180;52585;47.566;19.056;2023-02-28T05:58:27;101486.80;;;2.70
65823;BMP180;52585;47.566;19.056;2023-02-28T06:01:00;101488.40;;;2.70
65823;BMP180;52585;47.566;19.056;2023-02-28T06:03:27;101492.40;;;2.70
65823;BMP180;52585;47.566;19.056;2023-02-28T06:05:53;101495.80;;;2.70
65823;BMP180;52585;47.566;19.056;2023-02-28T06:08:19;101496.80;;;2.70
65823;BMP180;52585;47.566;19.056;2023-02-28T06:10:44;101499.20;;;2.70
65823;BMP180;52585;47.566;19.056;2023-02-28T06:13:11;101501.40;;;2.70
65823;BMP180;52585;47.566;19.056;2023-02-28T06:15:38;101496.80;;;2.70
65823;BMP180;52585;47.566;19.056;2023-02-28T06:18:03;101498.00;;;2.70
65823;BMP180;52585;47.566;19.056;2023-02-28T06:20:29;101498.20;;;2.70
65823;BMP180;52585;47.566;19.056;2023-02-28T06:22:56;101493.60;;;2.70
65823;BMP180;52585;47.566;19.056;2023-02-28T06:25:26;101498.00;;;2.70
65823;BMP180;52585;47.566;19.056;2023-02-28T06:27:52;101499.20;;;2.70
65823;BMP180;52585;47.566;19.056;2023-02-28T06:30:18;101508.80;;;2.70
65823;BMP180;52585;47.566;19.056;2023-02-28T06:32:43;101506.40;;;2.72
65823;BMP180;52585;47.566;19.056;2023-02-28T06:35:09;101506.80;;;2.74
65823;BMP180;52585;47.566;19.056;2023-02-28T06:37:35;101511.60;;;2.80
65823;BMP180;52585;47.566;19.056;2023-02-28T06:40:01;101513.60;;;2.80
65823;BMP180;52585;47.566;19.056;2023-02-28T06:42:28;101508.00;;;2.80
65823;BMP180;52585;47.566;19.056;2023-02-28T06:44:57;101510.20;;;2.80
65823;BMP180;52585;47.566;19.056;2023-02-28T06:47:23;101508.40;;;2.82
65823;BMP180;52585;47.566;19.056;2023-02-28T06:49:50;101507.00;;;2.86
65823;BMP180;52585;47.566;19.056;2023-02-28T06:52:16;101512.40;;;2.90
65823;BMP180;52585;47.566;19.056;2023-02-28T06:54:41;101514.60;;;2.90
65823;BMP180;52585;47.566;19.056;2023-02-28T06:57:08;101518.00;;;2.90
65823;BMP180;52585;47.566;19.056;2023-02-28T06:59:33;101515.60;;;2.90
65823;BMP180;52585;47.566;19.056;2023-02-28T07:02:01;101517.00;;;2.98
65823;BMP180;52585;47.566;19.056;2023-02-28T07:04:27;101513.40;;;3.00
65823;BMP180;52585;47.566;19.056;2023-02-28T07:06:55;101514.00;;;3.00
65823;BMP180;52585;47.566;19.056;2023-02-28T07:09:22;101513.60;;;3.00
65823;BMP180;52585;47.566;19.056;2023-02-28T07:11:48;101517.40;;;3.02
65823;BMP180;52585;47.566;19.056;2023-02-28T07:14:14;101516.40;;;3.00
65823;BMP180;52585;47.566;19.056;2023-02-28T07:16:39;101518.40;;;3.00
65823;BMP180;52585;47.566;19.056;2023-02-28T07:19:05;101526.20;;;3.10
65823;BMP180;52585;47.566;19.056;2023-02-28T07:21:30;101532.60;;;3.10
65823;BMP180;52585;47.566;19.056;2023-02-28T07:23:56;101537.00;;;3.10
65823;BMP180;52585;47.566;19.056;2023-02-28T07:26:22;101538.00;;;3.10
65823;BMP180;52585;47.566;19.056;2023-02-28T07:28:48;101540.00;;;3.10
65823;BMP180;52585;47.566;19.056;2023-02-28T07:31:15;101540.60;;;3.20
65823;BMP180;52585;47.566;19.056;2023-02-28T07:33:41;101538.60;;;3.20
65823;BMP180;52585;47.566;19.056;2023-02-28T07:36:14;101545.80;;;3.22
65823;BMP180;52585;47.566;19.056;2023-02-28T07:38:47;101543.80;;;3.30
65823;BMP180;52585;47.566;19.056;2023-02-28T07:41:19;101546.60;;;3.30
65823;BMP180;52585;47.566;19.056;2023-02-28T07:43:45;101548.40;;;3.30
65823;BMP180;52585;47.566;19.056;2023-02-28T07:46:14;101548.00;;;3.30
65823;BMP180;52585;47.566;19.056;2023-02-28T07:48:44;101551.80;;;3.34
65823;BMP180;52585;47.566;19.056;2023-02-28T07:51:10;101550.00;;;3.40
65823;BMP180;52585;47.566;19.056;2023-02-28T07:53:35;101552.20;;;3.40
65823;BMP180;52585;47.566;19.056;2023-02-28T07:56:03;101552.80;;;3.40
65823;BMP180;52585;47.566;19.056;2023-02-28T07:58:30;101551.40;;;3.50
65823;BMP180;52585;47.566;19.056;2023-02-28T08:00:57;101552.60;;;3.50
65823;BMP180;52585;47.566;19.056;2023-02-28T08:03:24;101553.00;;;3.50
65823;BMP180;52585;47.566;19.056;2023-02-28T08:05:50;101548.00;;;3.58
65823;BMP180;52585;47.566;19.056;2023-02-28T08:08:17;101547.80;;;3.60
65823;BMP180;52585;47.566;19.056;2023-02-28T08:10:43;101549.20;;;3.60
65823;BMP180;52585;47.566;19.056;2023-02-28T08:13:09;101552.00;;;3.60
65823;BMP180;52585;47.566;19.056;2023-02-28T08:15:35;101549.40;;;3.60
65823;BMP180;52585;47.566;19.056;2023-02-28T08:18:02;101547.80;;;3.68
65823;BMP180;52585;47.566;19.056;2023-02-28T08:20:27;101547.40;;;3.70
65823;BMP180;52585;47.566;19.056;2023-02-28T08:22:53;101550.00;;;3.70
65823;BMP180;52585;47.566;19.056;2023-02-28T08:25:19;101549.60;;;3.70
65823;BMP180;52585;47.566;19.056;2023-02-28T08:27:45;101548.80;;;3.76
65823;BMP180;52585;47.566;19.056;2023-02-28T08:30:13;101552.80;;;3.80
65823;BMP180;52585;47.566;19.056;2023-02-28T08:32:40;101552.60;;;3.80
65823;BMP180;52585;47.566;19.056;2023-02-28T08:35:06;101545.40;;;3.84
65823;BMP180;52585;47.566;19.056;2023-02-28T08:37:34;101545.60;;;3.90
65823;BMP180;52585;47.566;19.056;2023-02-28T08:40:00;101540.80;;;3.90
65823;BMP180;52585;47.566;19.056;2023-02-28T08:42:26;101544.20;;;3.96
65823;BMP180;52585;47.566;19.056;2023-02-28T08:44:51;101548.00;;;4.00
65823;BMP180;52585;47.566;19.056;2023-02-28T08:47:17;101546.20;;;4.00
65823;BMP180;52585;47.566;19.056;2023-02-28T08:49:42;101545.00;;;4.10
65823;BMP180;52585;47.566;19.056;2023-02-28T08:52:08;101545.20;;;4.10
65823;BMP180;52585;47.566;19.056;2023-02-28T08:54:35;101546.80;;;4.10
65823;BMP180;52585;47.566;19.056;2023-02-28T08:57:00;101548.00;;;4.20
65823;BMP180;52585;47.566;19.056;2023-02-28T08:59:27;101551.20;;;4.20
65823;BMP180;52585;47.566;19.056;2023-02-28T09:01:52;101551.80;;;4.28
65823;BMP180;52585;47.566;19.056;2023-02-28T09:04:18;101550.60;;;4.30
65823;BMP180;52585;47.566;19.056;2023-02-28T09:06:44;101545.80;;;4.30
65823;BMP180;52585;47.566;19.056;2023-02-28T09:09:10;101545.60;;;4.34
65823;BMP180;52585;47.566;19.056;2023-02-28T09:11:37;101542.40;;;4.38
65823;BMP180;52585;47.566;19.056;2023-02-28T09:14:03;101541.40;;;4.40
65823;BMP180;52585;47.566;19.056;2023-02-28T09:16:31;101546.20;;;4.40
65823;BMP180;52585;47.566;19.056;2023-02-28T09:18:57;101546.80;;;4.40
65823;BMP180;52585;47.566;19.056;2023-02-28T09:21:23;101548.20;;;4.40
65823;BMP180;52585;47.566;19.056;2023-02-28T09:23:50;101551.00;;;4.40
65823;BMP180;52585;47.566;19.056;2023-02-28T09:26:16;101551.20;;;4.44
65823;BMP180;52585;47.566;19.056;2023-02-28T09:28:43;101554.00;;;4.50
65823;BMP180;52585;47.566;19.056;2023-02-28T09:31:22;101549.40;;;4.52
65823;BMP180;52585;47.566;19.056;2023-02-28T09:33:50;101546.20;;;4.60
65823;BMP180;52585;47.566;19.056;2023-02-28T09:36:17;101549.00;;;4.60
65823;BMP180;52585;47.566;19.056;2023-02-28T09:38:42;101550.00;;;4.60
65823;BMP180;52585;47.566;19.056;2023-02-28T09:41:23;101556.60;;;4.60
65823;BMP180;52585;47.566;19.056;2023-02-28T09:43:56;101556.60;;;4.60
65823;BMP180;52585;47.566;19.056;2023-02-28T09:46:44;101556.40;;;4.68
65823;BMP180;52585;47.566;19.056;2023-02-28T09:49:20;101556.20;;;4.70
65823;BMP180;52585;47.566;19.056;2023-02-28T09:51:59;101558.60;;;4.70
65823;BMP180;52585;47.566;19.056;2023-02-28T09:54:30;101555.80;;;4.70
65823;BMP180;52585;47.566;19.056;2023-02-28T09:59:50;101551.00;;;4.72
65823;BMP180;52585;47.566;19.056;2023-02-28T10:03:24;101547.80;;;4.80
65823;BMP180;52585;47.566;19.056;2023-02-28T10:08:36;101547.00;;;4.80
65823;BMP180;52585;47.566;19.056;2023-02-28T10:11:09;101540.60;;;4.86
65823;BMP180;52585;47.566;19.056;2023-02-28T10:13:50;101547.40;;;4.90
65823;BMP180;52585;47.566;19.056;2023-02-28T10:16:40;101544.20;;;4.90
65823;BMP180;52585;47.566;19.056;2023-02-28T10:19:30;101542.80;;;4.90
65823;BMP180;52585;47.566;19.056;2023-02-28T10:24:53;101546.80;;;4.90
65823;BMP180;52585;47.566;19.056;2023-02-28T10:27:29;101541.20;;;4.90
65823;BMP180;52585;47.566;19.056;2023-02-28T10:29:59;101540.40;;;4.90
65823;BMP180;52585;47.566;19.056;2023-02-28T10:32:26;101534.60;;;4.90
65823;BMP180;52585;47.566;19.056;2023-02-28T10:35:23;101530.80;;;4.90
65823;BMP180;52585;47.566;19.056;2023-02-28T10:37:54;101528.80;;;5.00
65823;BMP180;52585;47.566;19.056;2023-02-28T10:43:00;101523.80;;;5.02
65823;BMP180;52585;47.566;19.056;2023-02-28T10:45:29;101522.00;;;5.06
65823;BMP180;52585;47.566;19.056;2023-02-28T11:01:22;101501.60;;;5.30
65823;BMP180;52585;47.566;19.056;2023-02-28T11:03:50;101501.60;;;5.30
65823;BMP180;52585;47.566;19.056;2023-02-28T11:06:33;101500.60;;;5.36
65823;BMP180;52585;47.566;19.056;2023-02-28T11:11:51;101493.00;;;5.40
65823;BMP180;52585;47.566;19.056;2023-02-28T11:14:28;101501.40;;;5.40
65823;BMP180;52585;47.566;19.056;2023-02-28T11:16:57;101497.20;;;5.40
65823;BMP180;52585;47.566;19.056;2023-02-28T11:19:37;101500.00;;;5.44
65823;BMP180;52585;47.566;19.056;2023-02-28T11:22:05;101500.00;;;5.48
65823;BMP180;52585;47.566;19.056;2023-02-28T11:24:48;101495.00;;;5.50
65823;BMP180;52585;47.566;19.056;2023-02-28T11:29:55;101494.00;;;5.50
65823;BMP180;52585;47.566;19.056;2023-02-28T11:32:27;101495.20;;;5.50
65823;BMP180;52585;47.566;19.056;2023-02-28T11:35:18;101495.00;;;5.60
65823;BMP180;52585;47.566;19.056;2023-02-28T11:37:48;101489.20;;;5.60
65823;BMP180;52585;47.566;19.056;2023-02-28T11:40:31;101489.00;;;5.60
65823;BMP180;52585;47.566;19.056;2023-02-28T11:43:27;101491.40;;;5.62
65823;BMP180;52585;47.566;19.056;2023-02-28T11:46:49;101491.80;;;5.70
65823;BMP180;52585;47.566;19.056;2023-02-28T12:04:26;101485.40;;;5.80
65823;BMP180;52585;47.566;19.056;2023-02-28T12:07:06;101481.80;;;5.80
65823;BMP180;52585;47.566;19.056;2023-02-28T12:26:32;101458.20;;;6.08
65823;BMP180;52585;47.566;19.056;2023-02-28T12:31:56;101453.40;;;6.20
65823;BMP180;52585;47.566;19.056;2023-02-28T12:34:32;101448.80;;;6.20
65823;BMP180;52585;47.566;19.056;2023-02-28T12:37:10;101450.80;;;6.30
65823;BMP180;52585;47.566;19.056;2023-02-28T12:39:45;101439.20;;;6.40
65823;BMP180;52585;47.566;19.056;2023-02-28T12:42:24;101438.20;;;6.40
65823;BMP180;52585;47.566;19.056;2023-02-28T12:45:01;101440.00;;;6.44
65823;BMP180;52585;47.566;19.056;2023-02-28T12:47:26;101439.20;;;6.50
65823;BMP180;52585;47.566;19.056;2023-02-28T12:49:59;101440.80;;;6.50
65823;BMP180;52585;47.566;19.056;2023-02-28T12:55:48;101431.80;;;6.50
65823;BMP180;52585;47.566;19.056;2023-02-28T12:58:28;101434.80;;;6.50
65823;BMP180;52585;47.566;19.056;2023-02-28T13:07:31;101425.60;;;6.50
65823;BMP180;52585;47.566;19.056;2023-02-28T13:10:04;101418.40;;;6.50
65823;BMP180;52585;47.566;19.056;2023-02-28T13:12:33;101420.20;;;6.50
65823;BMP180;52585;47.566;19.056;2023-02-28T13:15:29;101418.60;;;6.54
65823;BMP180;52585;47.566;19.056;2023-02-28T13:17:58;101425.20;;;6.60
65823;BMP180;52585;47.566;19.056;2023-02-28T13:20:29;101426.20;;;6.60
65823;BMP180;52585;47.566;19.056;2023-02-28T13:22:57;101421.60;;;6.60
65823;BMP180;52585;47.566;19.056;2023-02-28T13:27:53;101417.20;;;6.60
65823;BMP180;52585;47.566;19.056;2023-02-28T13:38:47;101411.20;;;6.60
65823;BMP180;52585;47.566;19.056;2023-02-28T13:44:19;101408.60;;;6.60
65823;BMP180;52585;47.566;19.056;2023-02-28T13:51:53;101403.00;;;6.66
65823;BMP180;52585;47.566;19.056;2023-02-28T13:57:20;101394.00;;;6.70
65823;BMP180;52585;47.566;19.056;2023-02-28T14:02:49;101392.60;;;6.70
65823;BMP180;52585;47.566;19.056;2023-02-28T14:05:22;101390.80;;;6.70
65823;BMP180;52585;47.566;19.056;2023-02-28T14:07:59;101389.40;;;6.70
65823;BMP180;52585;47.566;19.056;2023-02-28T14:10:33;101386.00;;;6.70
65823;BMP180;52585;47.566;19.056;2023-02-28T14:13:12;101381.20;;;6.72
65823;BMP180;52585;47.566;19.056;2023-02-28T14:21:31;101373.40;;;6.80
65823;BMP180;52585;47.566;19.056;2023-02-28T14:27:02;101375.20;;;6.74
65823;BMP180;52585;47.566;19.056;2023-02-28T14:32:41;101375.60;;;6.70
65823;BMP180;52585;47.566;19.056;2023-02-28T14:37:44;101369.40;;;6.70
65823;BMP180;52585;47.566;19.056;2023-02-28T14:42:58;101371.60;;;6.70
65823;BMP180;52585;47.566;19.056;2023-02-28T14:45:31;101373.40;;;6.70
65823;BMP180;52585;47.566;19.056;2023-02-28T14:47:58;101375.80;;;6.70
65823;BMP180;52585;47.566;19.056;2023-02-28T14:50:34;101372.60;;;6.70
65823;BMP180;52585;47.566;19.056;2023-02-28T14:53:02;101374.20;;;6.70
65823;BMP180;52585;47.566;19.056;2023-02-28T14:55:35;101370.40;;;6.70
65823;BMP180;52585;47.566;19.056;2023-02-28T14:58:05;101369.20;;;6.70
65823;BMP180;52585;47.566;19.056;2023-02-28T15:00:42;101370.20;;;6.70
65823;BMP180;52585;47.566;19.056;2023-02-28T15:03:38;101368.60;;;6.70
65823;BMP180;52585;47.566;19.056;2023-02-28T15:06:15;101370.00;;;6.70
65823;BMP180;52585;47.566;19.056;2023-02-28T15:08:46;101373.60;;;6.70
65823;BMP180;52585;47.566;19.056;2023-02-28T15:11:17;101374.20;;;6.70
65823;BMP180;52585;47.566;19.056;2023-02-28T15:13:53;101373.40;;;6.70
65823;BMP180;52585;47.566;19.056;2023-02-28T15:16:28;101375.40;;;6.70
65823;BMP180;52585;47.566;19.056;2023-02-28T15:19:11;101374.60;;;6.70
65823;BMP180;52585;47.566;19.056;2023-02-28T15:21:45;101380.00;;;6.70
65823;BMP180;52585;47.566;19.056;2023-02-28T15:24:50;101375.80;;;6.70
65823;BMP180;52585;47.566;19.056;2023-02-28T15:27:20;101382.40;;;6.70
65823;BMP180;52585;47.566;19.056;2023-02-28T15:29:51;101383.20;;;6.70
65823;BMP180;52585;47.566;19.056;2023-02-28T15:32:37;101377.40;;;6.70
65823;BMP180;52585;47.566;19.056;2023-02-28T15:35:27;101379.20;;;6.70
65823;BMP180;52585;47.566;19.056;2023-02-28T15:40:58;101377.60;;;6.70
65823;BMP180;52585;47.566;19.056;2023-02-28T15:53:35;101358.00;;;6.70
65823;BMP180;52585;47.566;19.056;2023-02-28T15:56:06;101360.20;;;6.72
65823;BMP180;52585;47.566;19.056;2023-02-28T15:58:35;101363.00;;;6.70
65823;BMP180;52585;47.566;19.056;2023-02-28T16:01:27;101368.20;;;6.72
65823;BMP180;52585;47.566;19.056;2023-02-28T16:04:00;101363.80;;;6.70
65823;BMP180;52585;47.566;19.056;2023-02-28T16:09:00;101366.80;;;6.70
65823;BMP180;52585;47.566;19.056;2023-02-28T16:11:26;101369.00;;;6.70
65823;BMP180;52585;47.566;19.056;2023-02-28T16:13:52;101367.80;;;6.70
65823;BMP180;52585;47.566;19.056;2023-02-28T16:16:23;101370.60;;;6.70
65823;BMP180;52585;47.566;19.056;2023-02-28T16:18:50;101375.60;;;6.70
65823;BMP180;52585;47.566;19.056;2023-02-28T16:21:17;101378.00;;;6.70
65823;BMP180;52585;47.566;19.056;2023-02-28T16:23:42;101385.00;;;6.66
65823;BMP180;52585;47.566;19.056;2023-02-28T16:26:21;101377.20;;;6.60
65823;BMP180;52585;47.566;19.056;2023-02-28T16:28:48;101374.20;;;6.60
65823;BMP180;52585;47.566;19.056;2023-02-28T16:31:14;101379.20;;;6.60
65823;BMP180;52585;47.566;19.056;2023-02-28T16:33:43;101378.40;;;6.60
65823;BMP180;52585;47.566;19.056;2023-02-28T16:36:21;101380.00;;;6.60
65823;BMP180;52585;47.566;19.056;2023-02-28T16:38:48;101384.20;;;6.52
65823;BMP180;52585;47.566;19.056;2023-02-28T16:41:20;101384.40;;;6.50
65823;BMP180;52585;47.566;19.056;2023-02-28T16:43:50;101388.00;;;6.50
65823;BMP180;52585;47.566;19.056;2023-02-28T16:46:17;101389.40;;;6.50
65823;BMP180;52585;47.566;19.056;2023-02-28T16:48:44;101391.40;;;6.50
65823;BMP180;52585;47.566;19.056;2023-02-28T16:51:15;101393.40;;;6.50
65823;BMP180;52585;47.566;19.056;2023-02-28T16:53:42;101393.20;;;6.50
65823;BMP180;52585;47.566;19.056;2023-02-28T16:56:20;101394.40;;;6.50
65823;BMP180;52585;47.566;19.056;2023-02-28T16:58:47;101400.80;;;6.50
65823;BMP180;52585;47.566;19.056;2023-02-28T17:01:14;101402.60;;;6.50
65823;BMP180;52585;47.566;19.056;2023-02-28T17:03:41;101403.80;;;6.50
65823;BMP180;52585;47.566;19.056;2023-02-28T17:06:19;101408.80;;;6.46
65823;BMP180;52585;47.566;19.056;2023-02-28T17:08:46;101407.60;;;6.42